East Arlington, Vermont
Current Conditions -  °F | °C
As of 9:54 AM on Sunday 23 Nov 2014 (Local Time) from KDDH Reporting Station
Haze Haze  
Wind Chill: 44°   Ceiling: 2800
Heat Index: 44°   Visibility: 5mi
Dew Point: 41°   Wind: 0mph
Humidity: 89%   Direction: NA
Pressure: 30.12"   Gusts: NA
Location:  43.06°N, 73.14°W
Report Text: KDDH 231454Z AUTO 00000KT 5SM BR OVC028 07/05 A3012 RMK AO2 SLP204 T00670050 51013
Loading
Personal Weather Stations






























Interactive Weather Map New forecast layout! Learn more

10-Day Weather Forecast

Advertisements
Track Severe Weather on mobile